KIND

Indianapolis International Airport

Indianapolis, Indiana, USA
METAR KIND 170554Z 23007KT 10SM CLR 04/02 A3016 RMK AO2 SLP216 T00440017 10078 20044 58001
Observed Flight Rules
Oct-17 @ 05:54 UTC (7 minutes ago) Visual Flight Rules
Wind Visibility Clouds
230° at 7 knots 10 miles
  • Clear skies
Temperatures Readings
Current 4°C / 39°F
Dewpoint 2°C / 36°F
Humidity 87%
Altimeter 30.16" Hg
Pressure 1021.6 hPa
Elevation 241
METAR KIND 170554Z 23007KT 10SM CLR 04/02 A3016 RMK AO2 SLP216 T00440017 10078 20044 58001
Observed Flight Rules
Oct-17 @ 05:54 UTC
(7 minutes ago)
VFR
Wind Visibility
230° at 7 knots 10 miles
Clouds
  • Clear skies
Temperature Dewpoint
4°C / 39°F 2°C / 36°F
Humidity Altimeter Pressure
87% 30.16" Hg 1021.6 hPa